Time;durP1;ratioP1;P1;durP2;ratioP2;P2;SDS_P1;SDS_P2;PMS_P1;PMS_P2;Temp;Humidity;BMP_temperature;BMP_pressure;BME280_temperature;BME280_humidity;BME280_pressure;Samples;Min_cycle;Max_cycle;Signal;HPM_P1;HPM_P2
2024/04/18 00:00:32;;;;;;;1.77;1.50;;;5.70;99.90;;;;;;5433916;26;21005;-69
2024/04/18 00:02:57;;;;;;;1.10;1.00;;;5.70;99.90;;;;;;5434618;26;20947;-69
2024/04/18 00:05:32;;;;;;;1.90;1.27;;;5.60;99.90;;;;;;5434000;26;20050;-69
2024/04/18 00:07:58;;;;;;;1.65;1.10;;;5.60;99.90;;;;;;5433767;26;20956;-69
2024/04/18 00:10:24;;;;;;;1.27;0.90;;;5.60;99.90;;;;;;5433845;26;19998;-69
2024/04/18 00:12:49;;;;;;;1.88;1.27;;;5.50;99.90;;;;;;5435653;26;20002;-69
2024/04/18 00:15:22;;;;;;;1.52;1.20;;;5.50;99.90;;;;;;5437452;26;19999;-70
2024/04/18 00:17:55;;;;;;;2.53;1.17;;;5.50;99.90;;;;;;5432158;26;20007;-69
2024/04/18 00:20:24;;;;;;;1.58;1.00;;;5.50;99.90;;;;;;5435559;26;20726;-67
2024/04/18 00:22:52;;;;;;;3.85;1.30;;;5.50;99.90;;;;;;5433346;26;20111;-70
2024/04/18 00:25:26;;;;;;;1.63;1.10;;;5.50;99.90;;;;;;5434538;26;19994;-69
2024/04/18 00:27:55;;;;;;;2.67;1.33;;;5.60;99.90;;;;;;5433076;26;20006;-67
2024/04/18 00:30:42;;;;;;;1.30;1.20;;;5.60;99.90;;;;;;5434285;26;19991;-66
2024/04/18 00:33:08;;;;;;;3.70;1.10;;;5.60;99.90;;;;;;5435210;26;19999;-69
2024/04/18 00:35:38;;;;;;;1.92;1.58;;;5.70;99.90;;;;;;5433566;26;20541;-70
2024/04/18 00:38:10;;;;;;;1.83;1.00;;;5.70;99.90;;;;;;5435354;26;20014;-70
2024/04/18 00:40:42;;;;;;;1.25;1.00;;;5.70;99.90;;;;;;5434145;26;19995;-70
2024/04/18 00:43:19;;;;;;;1.38;1.23;;;5.70;99.90;;;;;;5431276;26;20841;-70
2024/04/18 00:45:50;;;;;;;2.47;1.00;;;5.70;99.90;;;;;;5435851;26;20576;-70
2024/04/18 00:48:21;;;;;;;0.82;0.80;;;5.60;99.90;;;;;;5438398;26;20007;-69
2024/04/18 00:50:47;;;;;;;1.98;1.13;;;5.60;99.90;;;;;;5437831;26;19999;-70
2024/04/18 00:53:21;;;;;;;2.65;1.23;;;5.50;99.90;;;;;;5435968;26;20003;-70
2024/04/18 00:55:51;;;;;;;1.38;1.08;;;5.50;99.90;;;;;;5435408;26;20018;-70
2024/04/18 00:58:17;;;;;;;1.10;1.00;;;5.40;99.90;;;;;;5438204;26;20425;-69
2024/04/18 01:00:46;;;;;;;1.35;0.98;;;5.40;99.90;;;;;;5435830;26;20003;-68
2024/04/18 01:03:30;;;;;;;1.55;1.10;;;5.40;99.90;;;;;;5435536;26;20502;-68
2024/04/18 01:06:07;;;;;;;1.38;1.05;;;5.40;99.90;;;;;;5437331;26;20003;-68
2024/04/18 01:08:52;;;;;;;1.67;1.10;;;5.30;99.90;;;;;;5435705;26;20564;-67
2024/04/18 01:11:38;;;;;;;1.95;1.58;;;5.30;99.90;;;;;;5436691;26;19995;-67
2024/04/18 01:14:08;;;;;;;2.85;1.13;;;5.30;99.90;;;;;;5434639;26;19995;-70
2024/04/18 01:16:53;;;;;;;1.67;0.95;;;5.30;99.90;;;;;;5435985;26;20010;-70
2024/04/18 01:19:19;;;;;;;1.85;1.20;;;5.20;99.90;;;;;;5438390;26;20006;-70
2024/04/18 01:21:48;;;;;;;1.73;1.25;;;5.20;99.90;;;;;;5433998;26;20356;-70
2024/04/18 01:24:14;;;;;;;1.75;1.30;;;5.20;99.90;;;;;;5438680;26;20881;-70
2024/04/18 01:26:41;;;;;;;1.33;1.23;;;5.10;99.90;;;;;;5437864;26;20496;-70
2024/04/18 01:29:06;;;;;;;2.47;1.10;;;5.10;99.90;;;;;;5434889;26;20003;-70
2024/04/18 01:31:32;;;;;;;1.20;1.10;;;5.10;99.90;;;;;;5437167;26;20014;-70
2024/04/18 01:33:58;;;;;;;2.58;1.70;;;5.00;99.90;;;;;;5437745;26;19994;-70
2024/04/18 01:36:24;;;;;;;1.45;1.35;;;5.00;99.90;;;;;;5437983;26;20050;-70
2024/04/18 01:38:51;;;;;;;1.52;1.02;;;5.00;99.90;;;;;;5438523;26;19995;-70
2024/04/18 01:41:30;;;;;;;2.20;1.20;;;4.90;99.90;;;;;;5433937;26;19994;-69
2024/04/18 01:43:58;;;;;;;3.08;1.35;;;4.90;99.90;;;;;;5436334;26;19990;-70
2024/04/18 01:46:43;;;;;;;2.35;1.20;;;4.90;99.90;;;;;;5436300;26;20009;-71
2024/04/18 01:49:28;;;;;;;2.30;1.27;;;4.80;99.90;;;;;;5437207;26;20994;-71
2024/04/18 01:51:54;;;;;;;1.42;1.20;;;4.80;99.90;;;;;;5433472;26;20006;-70
2024/04/18 01:54:33;;;;;;;1.48;1.15;;;4.70;99.90;;;;;;5432989;26;20046;-70
2024/04/18 01:57:02;;;;;;;1.73;1.10;;;4.70;99.90;;;;;;5430505;26;20568;-70
2024/04/18 01:59:47;;;;;;;1.50;1.10;;;4.60;99.90;;;;;;5434884;26;20017;-70
2024/04/18 02:02:13;;;;;;;2.17;1.13;;;4.60;99.90;;;;;;5436669;26;19999;-70
2024/04/18 02:04:59;;;;;;;1.35;1.23;;;4.60;99.90;;;;;;5436205;26;20006;-70
2024/04/18 02:07:42;;;;;;;2.17;1.40;;;4.50;99.90;;;;;;5433465;26;20001;-70
2024/04/18 02:10:07;;;;;;;1.17;1.05;;;4.50;99.90;;;;;;5434228;26;19995;-68
2024/04/18 02:12:56;;;;;;;2.05;1.63;;;4.50;99.90;;;;;;5433091;26;19994;-68
2024/04/18 02:15:42;;;;;;;2.92;1.35;;;4.50;99.90;;;;;;5431447;26;20014;-68
2024/04/18 02:18:14;;;;;;;2.35;1.63;;;4.50;99.90;;;;;;5434277;26;19995;-68
2024/04/18 02:20:43;;;;;;;1.88;1.42;;;4.40;99.90;;;;;;5433631;26;19995;-68
2024/04/18 02:23:24;;;;;;;1.98;1.05;;;4.40;99.90;;;;;;5433430;26;19994;-68
2024/04/18 02:25:50;;;;;;;2.08;1.42;;;4.30;99.90;;;;;;5434723;26;20079;-68
2024/04/18 02:28:16;;;;;;;1.35;1.25;;;4.30;99.90;;;;;;5432800;26;20341;-68
2024/04/18 02:30:41;;;;;;;4.55;1.23;;;4.20;99.90;;;;;;5433148;26;19991;-70
2024/04/18 02:33:14;;;;;;;1.60;1.20;;;4.20;99.90;;;;;;5433854;26;20113;-70
2024/04/18 02:35:47;;;;;;;1.65;1.35;;;4.20;99.90;;;;;;5433736;26;20002;-70
2024/04/18 02:38:31;;;;;;;1.85;1.40;;;4.20;99.90;;;;;;5432263;26;20071;-70
2024/04/18 02:41:02;;;;;;;1.77;1.20;;;4.20;99.90;;;;;;5435614;26;20071;-70
2024/04/18 02:43:48;;;;;;;2.88;1.25;;;4.20;99.90;;;;;;5435385;26;20025;-70
2024/04/18 02:46:14;;;;;;;2.53;1.30;;;4.10;99.90;;;;;;5437141;26;20017;-70
2024/04/18 02:48:40;;;;;;;2.22;1.38;;;4.10;99.90;;;;;;5433465;26;20002;-70
2024/04/18 02:51:22;;;;;;;1.83;1.60;;;4.10;99.90;;;;;;5437204;26;20009;-71
2024/04/18 02:54:08;;;;;;;2.53;1.50;;;4.00;99.90;;;;;;5434364;26;19999;-70
2024/04/18 02:56:34;;;;;;;2.13;1.65;;;4.00;99.90;;;;;;5436505;26;19999;-70
2024/04/18 02:59:08;;;;;;;1.27;1.17;;;4.00;99.90;;;;;;5434571;26;19995;-70
2024/04/18 03:01:49;;;;;;;1.35;1.15;;;4.00;99.90;;;;;;5435617;26;19990;-70
2024/04/18 03:04:15;;;;;;;1.30;1.05;;;4.00;99.90;;;;;;5435303;26;20048;-69
2024/04/18 03:06:41;;;;;;;2.97;1.65;;;4.00;99.90;;;;;;5435018;26;19999;-70
2024/04/18 03:09:11;;;;;;;3.70;1.40;;;3.90;99.90;;;;;;5435691;26;19999;-68
2024/04/18 03:11:53;;;;;;;1.85;1.30;;;3.90;99.90;;;;;;5434861;26;20014;-68
2024/04/18 03:14:38;;;;;;;2.17;1.58;;;3.90;99.90;;;;;;5437140;26;19995;-68
2024/04/18 03:17:08;;;;;;;4.75;1.58;;;3.80;99.90;;;;;;5435410;26;20071;-68
2024/04/18 03:19:53;;;;;;;2.00;1.33;;;3.80;99.90;;;;;;5434844;26;20014;-68
2024/04/18 03:22:24;;;;;;;2.38;1.10;;;3.70;99.90;;;;;;5436375;26;20446;-68
2024/04/18 03:25:00;;;;;;;1.77;1.20;;;3.70;99.90;;;;;;5435977;26;19994;-68
2024/04/18 03:27:29;;;;;;;2.80;1.60;;;3.70;99.90;;;;;;5434824;26;20022;-68
2024/04/18 03:29:56;;;;;;;2.20;1.35;;;3.70;99.90;;;;;;5432571;26;19994;-68
2024/04/18 03:32:36;;;;;;;1.30;1.20;;;3.70;99.90;;;;;;5433669;26;19999;-68
2024/04/18 03:35:05;;;;;;;1.38;1.27;;;3.70;99.90;;;;;;5434581;26;20072;-68
2024/04/18 03:37:36;;;;;;;1.38;1.25;;;3.70;99.90;;;;;;5434080;26;20054;-68
2024/04/18 03:40:23;;;;;;;1.77;1.25;;;3.70;99.90;;;;;;5435685;26;20408;-68
2024/04/18 03:43:01;;;;;;;4.25;1.60;;;3.70;99.90;;;;;;5434669;26;19995;-68
2024/04/18 03:45:28;;;;;;;1.67;1.33;;;3.60;99.90;;;;;;5434633;26;20380;-68
2024/04/18 03:48:13;;;;;;;;;;;3.70;99.90;;;;;;5431959;26;20082;-68
2024/04/18 03:50:42;;;;;;;1.45;1.23;;;3.60;99.90;;;;;;5435365;26;19925;-68
2024/04/18 03:53:17;;;;;;;1.92;1.40;;;3.60;99.90;;;;;;5428229;26;20058;-68
2024/04/18 03:55:43;;;;;;;2.30;1.40;;;3.60;99.90;;;;;;5436406;26;19994;-67
2024/04/18 03:58:09;;;;;;;2.03;1.15;;;3.60;99.90;;;;;;5431645;26;19996;-67
2024/04/18 04:00:47;;;;;;;1.55;1.30;;;3.60;99.90;;;;;;5433375;26;20026;-66
2024/04/18 04:03:13;;;;;;;1.88;1.33;;;3.50;99.90;;;;;;5434309;26;20070;-67
2024/04/18 04:05:39;;;;;;;2.13;1.73;;;3.50;99.90;;;;;;5431014;26;20014;-67
2024/04/18 04:08:05;;;;;;;1.52;1.42;;;3.50;99.90;;;;;;5431085;26;20007;-67
2024/04/18 04:10:54;;;;;;;2.33;1.60;;;3.50;99.90;;;;;;5435160;26;19995;-67
2024/04/18 04:13:19;;;;;;;3.53;1.65;;;3.50;99.90;;;;;;5434639;26;20025;-67
2024/04/18 04:15:49;;;;;;;1.38;1.25;;;3.50;99.90;;;;;;5432728;26;20010;-68
2024/04/18 04:18:34;;;;;;;2.25;1.45;;;3.40;99.90;;;;;;5433188;26;20004;-68
2024/04/18 04:21:19;;;;;;;3.55;2.00;;;3.40;99.90;;;;;;5431840;26;20943;-68
2024/04/18 04:23:45;;;;;;;4.78;1.63;;;3.40;99.90;;;;;;5434667;26;19995;-68
2024/04/18 04:26:10;;;;;;;1.67;1.58;;;3.40;99.90;;;;;;5433136;26;20086;-67
2024/04/18 04:28:36;;;;;;;1.98;1.40;;;3.40;99.90;;;;;;5433189;26;20457;-67
2024/04/18 04:31:02;;;;;;;2.75;1.40;;;3.40;99.90;;;;;;5435431;26;20007;-67
2024/04/18 04:33:31;;;;;;;3.10;1.70;;;3.40;99.90;;;;;;5431310;26;19994;-67
2024/04/18 04:35:57;;;;;;;1.80;1.40;;;3.40;99.90;;;;;;5432603;26;20001;-68
2024/04/18 04:38:23;;;;;;;2.03;1.50;;;3.40;99.90;;;;;;5431469;26;19992;-68
2024/04/18 04:40:49;;;;;;;2.85;1.58;;;3.40;99.90;;;;;;5429854;26;20075;-67
2024/04/18 04:43:15;;;;;;;3.20;1.77;;;3.40;99.90;;;;;;5433558;26;20367;-67
2024/04/18 04:45:40;;;;;;;2.75;1.60;;;3.40;99.90;;;;;;5434213;26;20002;-67
2024/04/18 04:48:07;;;;;;;2.80;1.63;;;3.40;99.90;;;;;;5435533;26;20009;-67
2024/04/18 04:50:56;;;;;;;2.20;1.75;;;3.40;99.90;;;;;;5433490;26;20013;-68
2024/04/18 04:53:22;;;;;;;2.63;1.80;;;3.40;99.90;;;;;;5434186;26;20363;-68
2024/04/18 04:56:00;;;;;;;2.28;1.73;;;3.40;99.90;;;;;;5432020;26;20237;-68
2024/04/18 04:58:26;;;;;;;2.33;1.60;;;3.50;99.90;;;;;;5432991;26;20460;-68
2024/04/18 05:00:56;;;;;;;2.88;1.88;;;3.40;99.90;;;;;;5431924;26;20009;-70
2024/04/18 05:03:37;;;;;;;2.70;1.80;;;3.50;99.90;;;;;;5423741;26;20072;-70
2024/04/18 05:06:23;;;;;;;2.50;1.70;;;3.50;99.90;;;;;;5421683;26;20915;-66
2024/04/18 05:09:08;;;;;;;2.42;1.90;;;3.50;99.90;;;;;;5432483;26;20086;-70
2024/04/18 05:11:34;;;;;;;3.03;1.98;;;3.60;99.90;;;;;;5431439;26;19999;-70
2024/04/18 05:14:00;;;;;;;3.80;1.95;;;3.70;99.90;;;;;;5437016;26;20006;-70
2024/04/18 05:16:45;;;;;;;2.97;1.83;;;3.70;99.90;;;;;;5436503;26;20075;-69
2024/04/18 05:19:11;;;;;;;1.70;1.48;;;3.80;99.90;;;;;;5431155;26;20011;-70
2024/04/18 05:21:37;;;;;;;1.50;1.40;;;3.80;99.90;;;;;;5433182;26;20048;-69
2024/04/18 05:24:21;;;;;;;3.72;1.58;;;3.90;99.90;;;;;;5428961;26;20532;-70
2024/04/18 05:26:47;;;;;;;2.38;1.77;;;4.00;99.90;;;;;;5433253;26;19994;-70
2024/04/18 05:31:59;;;;;;;3.25;1.65;;;4.10;99.90;;;;;;5432261;26;20047;-70
2024/04/18 05:34:25;;;;;;;2.90;1.73;;;4.20;99.90;;;;;;5435097;26;20013;-69
2024/04/18 05:36:51;;;;;;;2.40;1.85;;;4.30;99.90;;;;;;5437297;26;19995;-67
2024/04/18 05:39:17;;;;;;;2.60;1.70;;;4.40;99.90;;;;;;5436437;26;20013;-68
2024/04/18 05:41:43;;;;;;;2.85;2.13;;;4.40;99.90;;;;;;5434808;26;20010;-70
2024/04/18 05:44:29;;;;;;;3.05;1.30;;;4.60;99.90;;;;;;5434345;26;20072;-70
2024/04/18 05:46:55;;;;;;;3.53;2.05;;;4.70;99.90;;;;;;5430515;26;20622;-70
2024/04/18 05:49:21;;;;;;;2.42;1.80;;;4.90;99.90;;;;;;5437221;26;20004;-70
2024/04/18 05:51:47;;;;;;;2.45;1.50;;;5.00;99.90;;;;;;5434791;26;19995;-70
2024/04/18 05:54:31;;;;;;;2.38;1.63;;;5.20;99.90;;;;;;5436011;26;20034;-70
2024/04/18 05:57:04;;;;;;;3.10;1.90;;;5.50;99.90;;;;;;5436716;26;19996;-70
2024/04/18 05:59:49;;;;;;;2.00;1.80;;;5.80;99.90;;;;;;5432113;26;19995;-70
2024/04/18 06:02:15;;;;;;;3.00;1.40;;;6.20;99.90;;;;;;5436477;26;19995;-70
2024/04/18 06:04:43;;;;;;;2.55;2.03;;;6.40;99.90;;;;;;5437592;26;20849;-70
2024/04/18 06:07:30;;;;;;;4.88;2.08;;;6.60;99.90;;;;;;5438050;26;20063;-70
2024/04/18 06:09:56;;;;;;;2.60;1.70;;;6.90;99.90;;;;;;5431002;26;20006;-70
2024/04/18 06:12:22;;;;;;;3.17;2.25;;;7.40;99.90;;;;;;5434327;26;20011;-68
2024/04/18 06:14:48;;;;;;;2.13;1.77;;;8.00;99.90;;;;;;5438042;26;20002;-68
2024/04/18 06:17:17;;;;;;;3.85;1.65;;;8.80;99.90;;;;;;5439474;26;19995;-68
2024/04/18 06:19:52;;;;;;;2.08;1.65;;;9.50;99.90;;;;;;5433536;26;20002;-68
2024/04/18 06:22:31;;;;;;;4.55;1.48;;;10.20;98.20;;;;;;5438122;26;20008;-70
2024/04/18 06:25:18;;;;;;;2.78;1.60;;;11.00;96.70;;;;;;5434965;26;20006;-70
2024/04/18 06:27:44;;;;;;;2.15;1.60;;;11.70;95.20;;;;;;5435720;26;20011;-70
2024/04/18 06:30:11;;;;;;;4.60;2.03;;;12.30;94.60;;;;;;5433162;26;20519;-70
2024/04/18 06:32:37;;;;;;;3.35;1.80;;;12.70;93.20;;;;;;5434009;26;20002;-70
2024/04/18 06:35:04;;;;;;;3.78;1.80;;;12.90;92.00;;;;;;5435930;26;20579;-70
2024/04/18 06:37:30;;;;;;;4.35;3.10;;;13.00;92.50;;;;;;5436258;26;20030;-70
2024/04/18 06:39:55;;;;;;;4.38;2.92;;;12.90;91.00;;;;;;5437390;26;20028;-70
2024/04/18 06:42:21;;;;;;;5.30;2.38;;;13.00;91.60;;;;;;5436274;26;19991;-70
2024/04/18 06:44:47;;;;;;;4.55;2.30;;;13.30;91.00;;;;;;5434043;26;20404;-70
2024/04/18 06:47:13;;;;;;;3.42;1.90;;;13.40;90.50;;;;;;5437324;26;20441;-69
2024/04/18 06:49:58;;;;;;;3.03;1.63;;;13.50;90.30;;;;;;5434812;26;20085;-70
2024/04/18 06:52:24;;;;;;;6.45;3.72;;;13.40;89.70;;;;;;5435709;26;20405;-68
2024/04/18 06:54:50;;;;;;;3.95;2.55;;;13.10;90.00;;;;;;5435676;26;19999;-71
2024/04/18 06:57:35;;;;;;;4.93;2.10;;;12.90;90.10;;;;;;5436495;26;20018;-69
2024/04/18 07:00:01;;;;;;;2.63;1.30;;;12.70;91.10;;;;;;5434821;26;20586;-69
2024/04/18 07:02:27;;;;;;;1.88;1.10;;;12.60;91.40;;;;;;5432868;26;20006;-69
2024/04/18 07:05:12;;;;;;;2.05;1.60;;;12.80;91.80;;;;;;5432759;26;20013;-69
2024/04/18 07:07:47;;;;;;;3.67;2.45;;;13.00;90.10;;;;;;5433901;26;20006;-73
2024/04/18 07:10:32;;;;;;;5.43;2.45;;;13.00;90.30;;;;;;5418003;26;20002;-69
2024/04/18 07:13:18;;;;;;;;;;;12.90;90.20;;;;;;5435874;26;20052;-69
2024/04/18 07:15:56;;;;;;;3.42;1.60;;;12.90;90.80;;;;;;5431770;26;19932;-70
2024/04/18 07:18:41;;;;;;;5.40;2.38;;;13.00;90.40;;;;;;5429785;26;20075;-70
2024/04/18 07:21:07;;;;;;;4.07;2.13;;;13.20;89.70;;;;;;5435975;26;20010;-70
2024/04/18 07:23:35;;;;;;;4.13;1.90;;;13.40;90.00;;;;;;5434692;26;20042;-70
2024/04/18 07:26:02;;;;;;;13.38;4.40;;;13.60;88.50;;;;;;5433536;26;20015;-69
2024/04/18 07:28:28;;;;;;;4.20;1.92;;;13.70;88.00;;;;;;5431922;26;20104;-70
2024/04/18 07:30:53;;;;;;;2.97;1.10;;;14.10;88.10;;;;;;5433216;26;19998;-74
2024/04/18 07:33:19;;;;;;;8.80;3.10;;;14.70;85.10;;;;;;5437270;26;19999;-73
2024/04/18 07:35:55;;;;;;;2.67;1.60;;;15.10;84.50;;;;;;5436238;26;20075;-69
2024/04/18 07:38:24;;;;;;;13.07;5.55;;;15.10;83.60;;;;;;5433840;26;20577;-68
2024/04/18 07:40:50;;;;;;;1.42;1.27;;;15.00;83.70;;;;;;5435052;26;20011;-69
2024/04/18 07:43:16;;;;;;;3.83;1.80;;;14.80;82.10;;;;;;5435550;26;20071;-69
2024/04/18 07:45:41;;;;;;;5.95;2.65;;;14.60;82.00;;;;;;5435104;26;20011;-69
2024/04/18 07:48:07;;;;;;;10.05;3.40;;;14.30;81.80;;;;;;5435192;26;20043;-69
2024/04/18 07:50:33;;;;;;;8.98;4.25;;;14.40;83.50;;;;;;5436125;26;19995;-69
2024/04/18 07:52:59;;;;;;;3.40;1.73;;;14.50;83.60;;;;;;5436867;26;20010;-69
2024/04/18 07:55:25;;;;;;;3.20;1.20;;;14.60;81.80;;;;;;5435532;26;20019;-69
2024/04/18 07:57:51;;;;;;;1.15;0.70;;;14.80;80.00;;;;;;5433214;26;20661;-69
2024/04/18 08:00:17;;;;;;;1.55;1.38;;;14.70;77.00;;;;;;5430951;26;20804;-69
2024/04/18 08:02:46;;;;;;;11.00;6.38;;;14.60;79.30;;;;;;5436847;26;19999;-69
2024/04/18 08:05:12;;;;;;;2.97;1.70;;;14.60;79.30;;;;;;5430954;26;20007;-69
2024/04/18 08:07:38;;;;;;;6.10;3.33;;;14.50;79.80;;;;;;5433875;26;20453;-69
2024/04/18 08:10:04;;;;;;;6.97;4.03;;;14.60;81.10;;;;;;5433243;26;19995;-68
2024/04/18 08:12:30;;;;;;;4.18;1.38;;;14.70;81.50;;;;;;5436218;26;19994;-68
2024/04/18 08:14:56;;;;;;;8.82;3.70;;;14.80;77.30;;;;;;5434560;26;20096;-69
2024/04/18 08:17:22;;;;;;;2.55;1.58;;;14.90;77.20;;;;;;5436084;26;20010;-68
2024/04/18 08:19:47;;;;;;;2.40;1.40;;;14.90;78.30;;;;;;5429954;26;20807;-69
2024/04/18 08:22:13;;;;;;;1.90;0.90;;;15.00;77.70;;;;;;5436384;26;19995;-71
2024/04/18 08:24:39;;;;;;;0.80;0.80;;;14.90;77.30;;;;;;5434738;26;19998;-70
2024/04/18 08:27:06;;;;;;;1.23;0.68;;;14.70;78.40;;;;;;5435560;26;20015;-70
2024/04/18 08:29:31;;;;;;;2.33;1.33;;;14.60;77.50;;;;;;5431167;26;20007;-70
2024/04/18 08:31:57;;;;;;;4.18;1.95;;;14.40;76.40;;;;;;5432696;26;20972;-71
2024/04/18 08:34:23;;;;;;;3.42;2.25;;;14.10;76.80;;;;;;5434735;26;20007;-70
2024/04/18 08:36:49;;;;;;;0.98;0.70;;;14.00;76.30;;;;;;5432852;26;20931;-69
2024/04/18 08:39:15;;;;;;;1.67;0.60;;;13.90;77.50;;;;;;5430799;26;20076;-73
2024/04/18 08:41:42;;;;;;;3.17;1.00;;;14.00;76.90;;;;;;5431917;26;20446;-73
2024/04/18 08:44:09;;;;;;;5.28;2.10;;;14.00;79.20;;;;;;5433434;26;19999;-74
2024/04/18 08:46:39;;;;;;;2.65;1.70;;;13.90;77.20;;;;;;5432171;26;20003;-68
2024/04/18 08:49:11;;;;;;;2.75;1.30;;;13.80;79.30;;;;;;5432012;26;20003;-68
2024/04/18 08:51:38;;;;;;;25.27;9.02;;;13.90;77.40;;;;;;5434437;26;19995;-71
2024/04/18 08:54:07;;;;;;;3.95;1.75;;;14.00;77.60;;;;;;5433354;26;20471;-71
2024/04/18 08:56:34;;;;;;;10.65;4.63;;;13.90;76.20;;;;;;5432118;26;20017;-69
2024/04/18 08:59:00;;;;;;;6.75;2.50;;;13.90;76.80;;;;;;5434990;26;19999;-71
2024/04/18 09:01:27;;;;;;;1.25;0.77;;;14.00;74.60;;;;;;5431392;26;20075;-70
2024/04/18 09:03:55;;;;;;;1.48;0.75;;;14.20;74.90;;;;;;5434964;26;20017;-71
2024/04/18 09:06:21;;;;;;;4.97;2.33;;;14.50;70.80;;;;;;5430443;26;20034;-71
2024/04/18 09:08:50;;;;;;;3.17;1.17;;;14.70;72.50;;;;;;5435166;26;20087;-71
2024/04/18 09:11:16;;;;;;;2.60;1.42;;;14.60;71.40;;;;;;5432041;26;20038;-71
2024/04/18 09:13:43;;;;;;;1.00;0.70;;;14.50;72.20;;;;;;5435579;26;20021;-71
2024/04/18 09:16:09;;;;;;;0.60;0.60;;;14.30;71.80;;;;;;5432305;26;20046;-71
2024/04/18 09:18:35;;;;;;;1.00;0.65;;;14.10;71.50;;;;;;5434859;26;20002;-71
2024/04/18 09:21:02;;;;;;;1.60;1.00;;;14.00;72.00;;;;;;5433215;26;20006;-72
2024/04/18 09:23:32;;;;;;;28.08;14.43;;;14.00;74.50;;;;;;5437094;26;19999;-71
2024/04/18 09:25:57;;;;;;;3.53;1.45;;;14.00;75.40;;;;;;5434971;26;19999;-71
2024/04/18 09:28:23;;;;;;;1.77;0.63;;;14.10;71.40;;;;;;5437893;26;20006;-70
2024/04/18 09:30:54;;;;;;;0.47;0.40;;;14.40;70.80;;;;;;5434084;26;20006;-70
2024/04/18 09:33:23;;;;;;;1.52;1.02;;;14.60;71.80;;;;;;5437447;26;20013;-71
2024/04/18 09:35:55;;;;;;;3.70;1.02;;;14.80;70.40;;;;;;5437107;26;20018;-70
2024/04/18 09:38:22;;;;;;;0.52;0.50;;;14.90;68.00;;;;;;5437917;26;19999;-71
2024/04/18 09:41:19;;;;;;;1.75;0.70;;;15.00;70.50;;;;;;5436358;26;20577;-71
2024/04/18 09:44:14;;;;;;;0.60;0.50;;;15.10;70.50;;;;;;5437923;26;19995;-71
2024/04/18 09:46:41;;;;;;;3.70;1.00;;;15.20;68.70;;;;;;5432062;26;19995;-71
2024/04/18 09:49:07;;;;;;;0.85;0.80;;;15.10;68.80;;;;;;5437049;26;20455;-71
2024/04/18 09:51:33;;;;;;;1.58;1.17;;;14.90;68.20;;;;;;5431637;26;20696;-70
2024/04/18 09:54:00;;;;;;;2.20;1.27;;;14.80;68.60;;;;;;5431579;26;19998;-70
2024/04/18 09:56:28;;;;;;;2.53;0.85;;;14.80;69.30;;;;;;5434908;26;19995;-71
2024/04/18 09:58:57;;;;;;;3.00;0.98;;;14.60;70.00;;;;;;5437572;26;20032;-70
2024/04/18 10:01:23;;;;;;;1.30;0.52;;;14.50;69.30;;;;;;5434562;26;19995;-72
2024/04/18 10:03:49;;;;;;;4.30;1.65;;;14.40;69.40;;;;;;5437001;26;19998;-68
2024/04/18 10:06:18;;;;;;;1.77;0.95;;;14.30;71.00;;;;;;5435288;26;20068;-70
2024/04/18 10:08:50;;;;;;;2.08;0.50;;;14.20;70.80;;;;;;5439281;26;20075;-69
2024/04/18 10:11:19;;;;;;;0.93;0.77;;;14.10;70.60;;;;;;5434946;26;20005;-70
2024/04/18 10:13:45;;;;;;;7.88;3.58;;;14.00;70.60;;;;;;5437530;26;20026;-69
2024/04/18 10:16:12;;;;;;;1.63;0.73;;;13.90;70.20;;;;;;5436248;26;20018;-69
2024/04/18 10:18:40;;;;;;;1.15;0.60;;;13.80;69.90;;;;;;5433878;26;19991;-70
2024/04/18 10:21:21;;;;;;;2.15;1.00;;;13.60;68.90;;;;;;5432515;26;20420;-70
2024/04/18 10:23:48;;;;;;;0.85;0.60;;;13.50;71.10;;;;;;5437399;26;20553;-70
2024/04/18 10:26:14;;;;;;;1.15;0.80;;;13.50;71.60;;;;;;5432120;26;19998;-69
2024/04/18 10:28:41;;;;;;;2.47;1.00;;;13.60;72.90;;;;;;5436874;26;19995;-69
2024/04/18 10:31:08;;;;;;;1.90;0.68;;;13.60;71.10;;;;;;5435121;26;20011;-69
2024/04/18 10:33:38;;;;;;;1.90;0.88;;;13.80;71.20;;;;;;5437907;26;20002;-71
2024/04/18 10:36:16;;;;;;;2.13;0.95;;;13.90;70.90;;;;;;5432907;26;20062;-69
2024/04/18 10:38:46;;;;;;;1.50;0.73;;;14.00;70.30;;;;;;5437469;26;20014;-71
2024/04/18 10:41:16;;;;;;;1.35;0.55;;;14.20;68.90;;;;;;5435835;26;20830;-73
2024/04/18 10:43:43;;;;;;;0.70;0.40;;;14.40;69.20;;;;;;5431060;26;20046;-69
2024/04/18 10:46:12;;;;;;;1.52;0.60;;;14.60;65.10;;;;;;5436589;26;20007;-69
2024/04/18 10:48:39;;;;;;;0.73;0.32;;;14.60;66.00;;;;;;5436697;26;19998;-70
2024/04/18 10:51:06;;;;;;;2.47;0.52;;;14.80;67.70;;;;;;5430427;26;20465;-69
2024/04/18 10:53:37;;;;;;;0.88;0.50;;;14.80;68.60;;;;;;5433268;26;20866;-69
2024/04/18 10:56:04;;;;;;;1.05;0.60;;;14.80;67.20;;;;;;5430874;26;20113;-69
2024/04/18 10:58:30;;;;;;;0.57;0.52;;;14.70;67.90;;;;;;5435000;26;19999;-69
2024/04/18 11:00:58;;;;;;;3.88;1.27;;;14.70;67.80;;;;;;5430644;26;20006;-70
2024/04/18 11:03:24;;;;;;;0.82;0.57;;;14.80;67.20;;;;;;5435180;26;20009;-68
2024/04/18 11:05:50;;;;;;;1.05;0.50;;;14.80;66.50;;;;;;5434346;26;20050;-69
2024/04/18 11:08:22;;;;;;;0.77;0.52;;;14.80;66.10;;;;;;5433941;26;19999;-69
2024/04/18 11:10:48;;;;;;;2.47;0.77;;;14.80;66.20;;;;;;5431650;26;20075;-69
2024/04/18 11:13:15;;;;;;;0.70;0.52;;;14.80;67.20;;;;;;5431095;26;20003;-69
2024/04/18 11:15:41;;;;;;;0.82;0.45;;;14.80;65.60;;;;;;5431858;26;20002;-69
2024/04/18 11:18:08;;;;;;;0.40;0.40;;;14.90;65.60;;;;;;5434204;26;20833;-69
2024/04/18 11:20:34;;;;;;;2.83;0.60;;;14.90;66.90;;;;;;5432600;26;20009;-69
2024/04/18 11:23:02;;;;;;;1.27;0.80;;;15.00;66.10;;;;;;5432442;26;20003;-69
2024/04/18 11:25:28;;;;;;;2.13;0.73;;;15.00;64.80;;;;;;5438571;26;19998;-69
2024/04/18 11:28:06;;;;;;;3.78;0.80;;;15.00;66.00;;;;;;5438233;26;19991;-68
2024/04/18 11:30:32;;;;;;;1.25;0.47;;;15.00;65.40;;;;;;5430786;26;20003;-68
2024/04/18 11:32:58;;;;;;;1.23;0.47;;;15.00;65.20;;;;;;5438113;26;20003;-68
2024/04/18 11:35:26;;;;;;;1.33;0.50;;;15.00;66.00;;;;;;5433929;26;20787;-68
2024/04/18 11:37:52;;;;;;;1.40;0.45;;;15.00;64.50;;;;;;5436390;26;19999;-68
2024/04/18 11:40:18;;;;;;;0.95;0.40;;;15.00;65.20;;;;;;5436408;26;20473;-67
2024/04/18 11:42:44;;;;;;;0.32;0.28;;;15.00;67.00;;;;;;5436401;26;20035;-68
2024/04/18 11:45:11;;;;;;;1.35;0.63;;;15.10;64.90;;;;;;5434813;26;20000;-68
2024/04/18 11:47:37;;;;;;;0.85;0.57;;;15.20;65.80;;;;;;5434893;26;20474;-68
2024/04/18 11:50:06;;;;;;;0.95;0.70;;;15.20;64.80;;;;;;5432966;26;20009;-69
2024/04/18 11:52:32;;;;;;;3.67;0.40;;;15.30;63.70;;;;;;5430787;26;19998;-68
2024/04/18 11:54:59;;;;;;;1.05;0.40;;;15.30;64.60;;;;;;5434254;26;19999;-69
2024/04/18 11:57:36;;;;;;;1.95;0.45;;;15.30;63.40;;;;;;5435441;26;20569;-68
2024/04/18 12:00:03;;;;;;;1.23;0.55;;;15.20;64.30;;;;;;5432647;26;20015;-68
2024/04/18 12:02:51;;;;;;;2.03;0.50;;;15.10;64.30;;;;;;5434193;26;20663;-68
2024/04/18 12:05:26;;;;;;;1.00;0.50;;;15.10;65.20;;;;;;5427954;26;20072;-68
2024/04/18 12:07:53;;;;;;;1.65;0.40;;;15.10;66.10;;;;;;5432788;26;19999;-72
2024/04/18 12:10:30;;;;;;;0.60;0.35;;;15.00;64.20;;;;;;5431515;26;20017;-71
2024/04/18 12:13:02;;;;;;;0.38;0.38;;;14.90;64.70;;;;;;5425768;26;20843;-68
2024/04/18 12:15:30;;;;;;;0.63;0.50;;;15.00;64.00;;;;;;5433143;26;20034;-65
2024/04/18 12:17:56;;;;;;;0.47;0.30;;;15.00;63.60;;;;;;5430349;26;19994;-65
2024/04/18 12:20:23;;;;;;;0.65;0.40;;;15.10;64.40;;;;;;5432438;26;20003;-65
2024/04/18 12:22:49;;;;;;;0.40;0.40;;;15.20;64.00;;;;;;5433625;26;20039;-65
2024/04/18 12:25:16;;;;;;;1.67;0.35;;;15.30;61.00;;;;;;5430537;26;20014;-69
2024/04/18 12:27:45;;;;;;;0.45;0.30;;;15.30;63.10;;;;;;5434472;26;19995;-68
2024/04/18 12:30:30;;;;;;;2.35;0.50;;;15.40;61.80;;;;;;5430178;26;20506;-68
2024/04/18 12:33:15;;;;;;;1.77;0.32;;;15.50;64.80;;;;;;5433427;26;20534;-68
2024/04/18 12:35:40;;;;;;;1.35;0.30;;;15.50;63.10;;;;;;5432709;26;20006;-70
2024/04/18 12:38:06;;;;;;;0.35;0.35;;;15.40;62.20;;;;;;5433929;26;20010;-68
2024/04/18 12:40:42;;;;;;;1.42;0.40;;;15.40;62.80;;;;;;5435142;26;20470;-69
2024/04/18 12:43:16;;;;;;;1.23;0.50;;;15.30;62.30;;;;;;5433742;26;20007;-71
2024/04/18 12:46:00;;;;;;;0.50;0.40;;;15.30;62.40;;;;;;5435852;26;19990;-72
2024/04/18 12:48:45;;;;;;;1.58;0.40;;;15.20;63.50;;;;;;5436628;26;20006;-71
2024/04/18 12:51:11;;;;;;;2.53;0.35;;;15.20;62.40;;;;;;5437449;26;20028;-71
2024/04/18 12:53:40;;;;;;;1.58;0.50;;;15.20;60.60;;;;;;5434541;26;19991;-71
2024/04/18 12:56:06;;;;;;;0.82;0.40;;;15.20;62.80;;;;;;5438135;26;20093;-71
2024/04/18 12:58:31;;;;;;;1.90;0.85;;;15.20;63.60;;;;;;5438788;26;20014;-71
2024/04/18 13:01:07;;;;;;;1.85;0.45;;;15.20;63.50;;;;;;5437339;26;20268;-70
2024/04/18 13:03:42;;;;;;;0.77;0.35;;;15.20;63.00;;;;;;5436618;26;20003;-69
2024/04/18 13:06:27;;;;;;;1.02;0.32;;;15.10;60.00;;;;;;5431971;26;20523;-70
2024/04/18 13:08:55;;;;;;;0.47;0.30;;;15.10;60.60;;;;;;5440232;26;20605;-70
2024/04/18 13:11:39;;;;;;;0.55;0.40;;;15.00;60.80;;;;;;5431616;26;20346;-70
2024/04/18 13:14:05;;;;;;;1.65;0.30;;;15.00;61.90;;;;;;5436568;26;20002;-70